createdAt,value
2023-02-23T00:00:08.162Z,8.20
2023-02-23T00:02:52.573Z,11.32
2023-02-23T00:05:21.737Z,9.05
2023-02-23T00:07:51.679Z,10.88
2023-02-23T00:10:30.030Z,8.10
2023-02-23T00:13:00.253Z,7.50
2023-02-23T00:15:31.086Z,5.93
2023-02-23T00:18:04.141Z,3.78
2023-02-23T00:20:49.383Z,8.27
2023-02-23T00:23:19.663Z,5.85
2023-02-23T00:25:53.994Z,7.50
2023-02-23T00:28:23.168Z,8.05
2023-02-23T00:30:52.785Z,7.00
2023-02-23T00:33:30.184Z,8.32
2023-02-23T00:36:07.832Z,8.20
2023-02-23T00:38:39.457Z,9.02
2023-02-23T00:41:12.461Z,6.80
2023-02-23T00:43:54.217Z,5.07
2023-02-23T00:46:26.647Z,14.70
2023-02-23T00:49:04.785Z,9.57
2023-02-23T00:51:33.978Z,11.60
2023-02-23T00:54:03.120Z,5.45
2023-02-23T00:56:32.316Z,10.50
2023-02-23T00:59:01.528Z,8.13
2023-02-23T01:01:31.201Z,12.65
2023-02-23T01:04:03.848Z,7.78
2023-02-23T01:06:33.062Z,5.80
2023-02-23T01:09:10.114Z,8.73
2023-02-23T01:11:41.023Z,6.25
2023-02-23T01:14:12.017Z,11.65
2023-02-23T01:16:43.728Z,11.88
2023-02-23T01:19:14.977Z,6.78
2023-02-23T01:21:45.359Z,6.68
2023-02-23T01:24:21.959Z,8.30
2023-02-23T01:26:51.181Z,4.28
2023-02-23T01:29:25.496Z,5.70
2023-02-23T01:31:55.141Z,7.75
2023-02-23T01:36:57.402Z,10.03
2023-02-23T01:39:26.645Z,6.28
2023-02-23T01:41:57.131Z,9.95
2023-02-23T01:44:56.279Z,8.37
2023-02-23T01:47:26.392Z,11.60
2023-02-23T01:49:57.502Z,7.63
2023-02-23T01:52:32.143Z,10.43
2023-02-23T01:55:01.448Z,10.90
2023-02-23T01:57:32.223Z,9.25
2023-02-23T02:00:01.556Z,7.35
2023-02-23T02:02:48.604Z,8.55
2023-02-23T02:05:21.655Z,6.25
2023-02-23T02:08:03.676Z,7.88
2023-02-23T02:10:45.488Z,5.50
2023-02-23T02:13:25.209Z,11.13
2023-02-23T02:16:34.638Z,9.88
2023-02-23T02:22:44.349Z,7.57
2023-02-23T02:25:40.449Z,13.65
2023-02-23T02:28:32.278Z,8.10
2023-02-23T02:34:26.550Z,5.68
2023-02-23T02:37:29.611Z,8.60
2023-02-23T02:40:16.325Z,9.30
2023-02-23T02:43:10.936Z,8.15
2023-02-23T02:45:47.447Z,9.55
2023-02-23T02:48:32.574Z,11.45
2023-02-23T02:51:09.701Z,7.03
2023-02-23T02:53:50.384Z,9.80
2023-02-23T02:56:23.251Z,8.55
2023-02-23T02:58:59.530Z,8.48
2023-02-23T03:01:45.068Z,9.27
2023-02-23T03:04:37.468Z,11.07
2023-02-23T03:07:25.806Z,6.53
2023-02-23T03:10:17.184Z,7.78
2023-02-23T03:13:11.851Z,12.70
2023-02-23T03:16:06.943Z,15.77
2023-02-23T03:19:04.415Z,13.55
2023-02-23T03:24:52.803Z,5.95
2023-02-23T03:27:41.607Z,5.47
2023-02-23T03:30:32.415Z,8.73
2023-02-23T03:33:25.502Z,9.05
2023-02-23T03:36:14.920Z,11.00
2023-02-23T03:39:04.942Z,5.72
2023-02-23T03:41:50.521Z,7.65
2023-02-23T03:44:44.228Z,13.75
2023-02-23T03:47:30.246Z,11.82
2023-02-23T03:50:19.070Z,9.90
2023-02-23T03:53:07.354Z,7.97
2023-02-23T03:58:54.061Z,7.97
2023-02-23T04:01:41.509Z,11.77
2023-02-23T04:04:29.758Z,8.38
2023-02-23T04:07:15.858Z,12.05
2023-02-23T04:10:03.415Z,8.15
2023-02-23T04:12:52.167Z,11.15
2023-02-23T04:15:26.792Z,10.27
2023-02-23T04:17:58.378Z,9.05
2023-02-23T04:20:27.911Z,7.57
2023-02-23T04:22:57.199Z,14.48
2023-02-23T04:25:26.617Z,10.27
2023-02-23T04:27:55.899Z,9.98
2023-02-23T04:30:25.305Z,12.32
2023-02-23T04:32:54.520Z,9.43
2023-02-23T04:35:27.461Z,11.43
2023-02-23T04:37:58.366Z,12.85
2023-02-23T04:40:28.111Z,9.00
2023-02-23T04:42:57.457Z,12.45
2023-02-23T04:45:27.701Z,5.97
2023-02-23T04:47:57.417Z,11.82
2023-02-23T04:50:33.662Z,8.13
2023-02-23T04:53:04.017Z,8.50
2023-02-23T04:55:33.659Z,9.18
2023-02-23T05:00:38.990Z,13.40
2023-02-23T05:03:08.405Z,7.43
2023-02-23T05:05:49.930Z,13.10
2023-02-23T05:08:19.168Z,12.88
2023-02-23T05:10:48.769Z,8.55
2023-02-23T05:13:24.575Z,10.43
2023-02-23T05:15:59.141Z,14.35
2023-02-23T05:18:33.438Z,12.77
2023-02-23T05:21:09.649Z,11.27
2023-02-23T05:23:39.674Z,11.13
2023-02-23T05:26:10.957Z,9.98
2023-02-23T05:28:43.572Z,14.70
2023-02-23T05:31:13.529Z,13.15
2023-02-23T05:33:45.323Z,11.98
2023-02-23T05:36:23.080Z,10.68
2023-02-23T05:38:52.524Z,16.73
2023-02-23T05:41:23.791Z,13.48
2023-02-23T05:43:59.339Z,16.88
2023-02-23T05:46:29.366Z,15.73
2023-02-23T05:49:00.419Z,11.20
2023-02-23T05:51:33.948Z,9.32
2023-02-23T05:54:03.420Z,11.75
2023-02-23T05:56:32.607Z,9.98
2023-02-23T05:59:02.086Z,13.00
2023-02-23T06:01:31.308Z,12.85
2023-02-23T06:04:06.319Z,12.93
2023-02-23T06:06:37.714Z,13.65
2023-02-23T06:09:06.874Z,8.48
2023-02-23T06:11:36.331Z,10.00
2023-02-23T06:14:11.312Z,7.10
2023-02-23T06:16:40.866Z,15.95
2023-02-23T06:19:10.468Z,11.27
2023-02-23T06:21:41.553Z,12.13
2023-02-23T06:24:11.832Z,11.00
2023-02-23T06:26:42.859Z,10.30
2023-02-23T06:29:14.608Z,6.07
2023-02-23T06:31:43.772Z,10.85
2023-02-23T06:34:13.312Z,9.02
2023-02-23T06:36:44.589Z,9.93
2023-02-23T06:39:14.504Z,7.35
2023-02-23T06:41:43.689Z,12.32
2023-02-23T06:44:19.631Z,6.20
2023-02-23T06:46:49.315Z,10.35
2023-02-23T06:49:18.385Z,9.70
2023-02-23T06:51:56.624Z,7.20
2023-02-23T06:54:26.077Z,7.75
2023-02-23T06:56:56.267Z,10.73
2023-02-23T06:59:25.904Z,13.18
2023-02-23T07:01:55.144Z,8.48
2023-02-23T07:04:25.391Z,14.30
2023-02-23T07:06:56.650Z,7.63
2023-02-23T07:09:26.011Z,9.68
2023-02-23T07:11:55.095Z,6.00
2023-02-23T07:14:29.296Z,7.63
2023-02-23T07:16:58.499Z,10.77
2023-02-23T07:19:28.303Z,8.10
2023-02-23T07:22:04.562Z,9.63
2023-02-23T07:24:33.822Z,8.85
2023-02-23T07:27:03.336Z,10.73
2023-02-23T07:29:32.621Z,15.07
2023-02-23T07:32:02.340Z,12.20
2023-02-23T07:34:36.812Z,11.90
2023-02-23T07:37:07.899Z,7.10
2023-02-23T07:39:42.143Z,10.80
2023-02-23T07:42:11.336Z,8.95
2023-02-23T07:44:41.057Z,9.30
2023-02-23T07:49:45.484Z,9.23
2023-02-23T07:52:20.190Z,8.80
2023-02-23T07:54:54.655Z,10.98
2023-02-23T07:57:25.081Z,7.38
2023-02-23T07:59:59.461Z,7.20
2023-02-23T08:02:29.797Z,7.57
2023-02-23T08:05:04.954Z,15.30
2023-02-23T08:07:36.379Z,10.43
2023-02-23T08:10:06.152Z,11.13
2023-02-23T08:12:35.541Z,11.90
2023-02-23T08:15:05.243Z,7.65
2023-02-23T08:17:34.415Z,8.75
2023-02-23T08:20:03.650Z,9.93
2023-02-23T08:25:11.617Z,7.03
2023-02-23T08:27:41.711Z,9.55
2023-02-23T08:30:13.798Z,5.90
2023-02-23T08:32:43.460Z,8.65
2023-02-23T08:35:20.003Z,9.63
2023-02-23T08:37:51.327Z,8.40
2023-02-23T08:40:20.717Z,10.20
2023-02-23T08:42:56.655Z,7.10
2023-02-23T08:45:28.962Z,7.35
2023-02-23T08:47:58.403Z,9.23
2023-02-23T08:50:27.662Z,5.80
2023-02-23T08:52:59.301Z,8.13
2023-02-23T08:55:29.353Z,7.80
2023-02-23T08:58:03.874Z,5.40
2023-02-23T09:00:33.015Z,4.03
2023-02-23T09:03:02.306Z,9.57
2023-02-23T09:05:31.492Z,10.57
2023-02-23T09:08:03.040Z,13.43
2023-02-23T09:10:38.220Z,9.52
2023-02-23T09:13:07.430Z,6.03
2023-02-23T09:15:36.952Z,6.22
2023-02-23T09:18:15.021Z,7.80
2023-02-23T09:20:44.607Z,7.78
2023-02-23T09:23:15.753Z,11.43
2023-02-23T09:25:51.334Z,11.65
2023-02-23T09:28:22.225Z,6.85
2023-02-23T09:30:51.435Z,11.15
2023-02-23T09:33:20.562Z,12.70
2023-02-23T09:35:54.959Z,11.85
2023-02-23T09:38:26.050Z,15.45
2023-02-23T09:40:56.502Z,7.90
2023-02-23T09:43:34.099Z,11.73
2023-02-23T09:46:15.827Z,11.82
2023-02-23T09:48:45.011Z,9.52
2023-02-23T09:51:22.381Z,7.40
2023-02-23T09:53:56.940Z,11.15
2023-02-23T09:56:35.445Z,11.10
2023-02-23T09:59:09.702Z,11.05
2023-02-23T10:02:02.463Z,7.13
2023-02-23T10:04:34.402Z,11.40
2023-02-23T10:07:11.865Z,9.82
2023-02-23T10:10:00.963Z,9.18
2023-02-23T10:12:36.163Z,9.57
2023-02-23T10:15:20.899Z,8.30
2023-02-23T10:18:03.737Z,7.85
2023-02-23T10:20:41.156Z,8.95
2023-02-23T10:23:25.794Z,6.70
2023-02-23T10:26:01.166Z,9.43
2023-02-23T10:28:35.848Z,10.65
2023-02-23T10:31:25.894Z,6.20
2023-02-23T10:33:57.717Z,7.93
2023-02-23T10:39:09.575Z,8.30
2023-02-23T10:41:41.849Z,8.57
2023-02-23T10:44:20.246Z,8.55
2023-02-23T10:46:55.737Z,7.68
2023-02-23T10:49:30.152Z,12.52
2023-02-23T10:52:02.483Z,6.78
2023-02-23T10:54:47.082Z,10.32
2023-02-23T10:57:26.618Z,8.13
2023-02-23T11:00:32.498Z,6.57
2023-02-23T11:03:03.973Z,9.27
2023-02-23T11:05:37.710Z,7.65
2023-02-23T11:08:14.141Z,7.78
2023-02-23T11:10:49.248Z,7.80
2023-02-23T11:13:28.518Z,6.32
2023-02-23T11:16:09.065Z,8.77
2023-02-23T11:18:39.530Z,4.78
2023-02-23T11:21:19.813Z,3.95
2023-02-23T11:23:53.439Z,5.75
2023-02-23T11:26:30.314Z,5.72
2023-02-23T11:29:05.296Z,6.57
2023-02-23T11:31:36.909Z,6.35
2023-02-23T11:34:23.382Z,9.70
2023-02-23T11:37:02.175Z,10.43
2023-02-23T11:39:31.385Z,9.30
2023-02-23T11:42:19.961Z,6.82
2023-02-23T11:45:03.901Z,6.13
2023-02-23T11:50:22.061Z,8.55
2023-02-23T11:55:38.673Z,13.88
2023-02-23T11:58:24.156Z,13.05
2023-02-23T12:01:00.747Z,10.02
2023-02-23T12:03:43.619Z,9.30
2023-02-23T12:06:12.987Z,8.02
2023-02-23T12:08:47.005Z,10.27
2023-02-23T12:11:22.230Z,7.30
2023-02-23T12:13:56.048Z,9.20
2023-02-23T12:16:31.449Z,8.80
2023-02-23T12:19:07.925Z,14.98
2023-02-23T12:21:43.477Z,8.10
2023-02-23T12:24:20.042Z,12.45
2023-02-23T12:26:54.267Z,8.95
2023-02-23T12:29:31.426Z,11.07
2023-02-23T12:32:13.205Z,13.70
2023-02-23T12:34:49.108Z,11.55
2023-02-23T12:37:31.118Z,11.25
2023-02-23T12:42:53.468Z,9.32
2023-02-23T12:45:30.826Z,10.25
2023-02-23T12:53:23.592Z,8.02
2023-02-23T12:56:14.155Z,11.52
2023-02-23T12:58:51.755Z,6.00
2023-02-23T13:01:28.552Z,9.77
2023-02-23T13:04:15.134Z,11.00
2023-02-23T13:06:56.866Z,10.05
2023-02-23T13:09:45.448Z,9.93
2023-02-23T13:12:30.839Z,8.30
2023-02-23T13:17:58.667Z,11.27
2023-02-23T13:23:26.431Z,18.35
2023-02-23T13:26:07.991Z,5.80
2023-02-23T13:28:44.888Z,10.35
2023-02-23T13:31:26.216Z,9.20
2023-02-23T13:33:58.633Z,6.00
2023-02-23T13:36:36.328Z,9.38
2023-02-23T13:39:35.192Z,9.43
2023-02-23T13:42:27.700Z,14.65
2023-02-23T13:45:09.655Z,11.60
2023-02-23T13:50:23.293Z,9.27
2023-02-23T13:52:58.046Z,5.97
2023-02-23T13:55:54.512Z,7.43
2023-02-23T13:58:30.874Z,5.85
2023-02-23T14:01:13.655Z,11.68
2023-02-23T14:03:47.199Z,8.77
2023-02-23T14:06:19.576Z,7.47
2023-02-23T14:09:00.197Z,9.73
2023-02-23T14:11:47.275Z,8.75
2023-02-23T14:17:50.083Z,9.25
2023-02-23T14:20:48.784Z,8.50
2023-02-23T14:23:32.120Z,7.38
2023-02-23T14:29:25.057Z,9.57
2023-02-23T14:32:00.978Z,13.48
2023-02-23T14:34:48.579Z,11.70
2023-02-23T14:37:32.328Z,8.70
2023-02-23T14:40:15.263Z,14.27
2023-02-23T14:42:54.424Z,9.63
2023-02-23T14:45:28.485Z,10.93
2023-02-23T14:48:01.464Z,6.97
2023-02-23T14:50:35.416Z,6.07
2023-02-23T14:53:06.723Z,6.25
2023-02-23T14:55:37.102Z,7.65
2023-02-23T14:58:23.019Z,10.75
2023-02-23T15:00:52.205Z,9.55
2023-02-23T15:03:22.109Z,12.27
2023-02-23T15:06:01.480Z,5.78
2023-02-23T15:08:40.269Z,9.85
2023-02-23T15:11:13.963Z,9.73
2023-02-23T15:13:49.585Z,8.40
2023-02-23T15:16:36.418Z,11.05
2023-02-23T15:19:07.229Z,8.23
2023-02-23T15:21:43.568Z,9.73
2023-02-23T15:24:16.176Z,9.48
2023-02-23T15:29:27.932Z,10.25
2023-02-23T15:32:18.525Z,9.82
2023-02-23T15:34:48.262Z,9.82
2023-02-23T15:37:29.634Z,8.77
2023-02-23T15:40:03.633Z,10.93
2023-02-23T15:42:43.301Z,9.60
2023-02-23T15:45:21.897Z,7.57
2023-02-23T15:48:00.799Z,10.95
2023-02-23T15:50:37.270Z,9.68
2023-02-23T15:53:15.283Z,5.18
2023-02-23T15:55:46.079Z,10.00
2023-02-23T15:58:26.054Z,8.30
2023-02-23T16:00:59.991Z,6.60
2023-02-23T16:03:33.182Z,10.82
2023-02-23T16:06:10.654Z,5.28
2023-02-23T16:08:58.557Z,8.75
2023-02-23T16:11:28.661Z,9.95
2023-02-23T16:13:58.012Z,3.55
2023-02-23T16:16:32.904Z,7.57
2023-02-23T16:19:04.902Z,7.55
2023-02-23T16:21:34.894Z,6.57
2023-02-23T16:24:10.987Z,8.93
2023-02-23T16:26:50.037Z,7.88
2023-02-23T16:29:27.184Z,10.00
2023-02-23T16:32:04.285Z,8.68
2023-02-23T16:34:36.838Z,5.50
2023-02-23T16:37:17.792Z,9.68
2023-02-23T16:39:49.028Z,7.85
2023-02-23T16:42:27.276Z,6.60
2023-02-23T16:44:56.593Z,8.18
2023-02-23T16:47:37.527Z,11.15
2023-02-23T16:50:19.863Z,8.53
2023-02-23T16:52:52.532Z,7.50
2023-02-23T16:55:26.949Z,10.18
2023-02-23T16:57:59.306Z,9.30
2023-02-23T17:00:30.977Z,10.32
2023-02-23T17:03:06.202Z,12.52
2023-02-23T17:05:35.552Z,11.50
2023-02-23T17:08:05.049Z,9.27
2023-02-23T17:10:42.348Z,12.35
2023-02-23T17:13:19.272Z,5.55
2023-02-23T17:15:51.209Z,7.35
2023-02-23T17:18:21.544Z,7.35
2023-02-23T17:20:52.820Z,7.55
2023-02-23T17:23:25.605Z,7.22
2023-02-23T17:25:58.028Z,8.95
2023-02-23T17:28:27.481Z,6.57
2023-02-23T17:30:56.605Z,10.30
2023-02-23T17:33:27.664Z,7.93
2023-02-23T17:35:56.963Z,6.45
2023-02-23T17:38:33.478Z,8.85
2023-02-23T17:41:08.044Z,9.23
2023-02-23T17:43:44.134Z,9.77
2023-02-23T17:46:18.905Z,6.13
2023-02-23T17:48:55.297Z,9.43
2023-02-23T17:51:25.795Z,6.82
2023-02-23T17:56:32.115Z,10.07
2023-02-23T18:01:35.967Z,6.28
2023-02-23T18:04:05.335Z,8.65
2023-02-23T18:06:34.529Z,9.88
2023-02-23T18:09:05.564Z,6.78
2023-02-23T18:11:37.205Z,11.25
2023-02-23T18:14:11.587Z,9.40
2023-02-23T18:16:42.490Z,9.18
2023-02-23T18:19:16.845Z,9.00
2023-02-23T18:21:46.031Z,12.73
2023-02-23T18:24:15.430Z,8.60
2023-02-23T18:26:46.521Z,8.90
2023-02-23T18:29:15.717Z,7.63
2023-02-23T18:31:45.019Z,9.93
2023-02-23T18:34:17.351Z,10.40
2023-02-23T18:36:51.536Z,11.02
2023-02-23T18:39:21.290Z,14.88
2023-02-23T18:41:52.830Z,21.55
2023-02-23T18:44:22.709Z,36.40
2023-02-23T18:46:52.525Z,27.20
2023-02-23T18:49:25.188Z,34.95
2023-02-23T18:51:56.285Z,23.13
2023-02-23T18:54:30.683Z,27.10
2023-02-23T18:57:01.766Z,31.35
2023-02-23T18:59:31.089Z,25.90
2023-02-23T19:02:00.427Z,28.90
2023-02-23T19:04:29.773Z,25.35
2023-02-23T19:07:04.053Z,19.65
2023-02-23T19:09:33.917Z,19.77
2023-02-23T19:12:05.191Z,17.67
2023-02-23T19:14:48.871Z,13.68
2023-02-23T19:17:18.779Z,10.45
2023-02-23T19:19:48.076Z,11.93
2023-02-23T19:22:18.268Z,13.98
2023-02-23T19:24:47.355Z,12.40
2023-02-23T19:27:18.707Z,13.57
2023-02-23T19:29:48.106Z,13.32
2023-02-23T19:32:18.168Z,6.78
2023-02-23T19:34:53.911Z,16.15
2023-02-23T19:37:28.163Z,8.43
2023-02-23T19:39:57.561Z,11.70
2023-02-23T19:42:31.399Z,10.60
2023-02-23T19:45:06.486Z,10.77
2023-02-23T19:47:35.675Z,11.82
2023-02-23T19:50:16.519Z,11.77
2023-02-23T19:52:46.333Z,12.95
2023-02-23T19:55:21.749Z,8.40
2023-02-23T19:57:53.914Z,11.35
2023-02-23T20:00:29.278Z,11.90
2023-02-23T20:03:02.792Z,9.27
2023-02-23T20:05:43.374Z,9.80
2023-02-23T20:08:18.920Z,7.65
2023-02-23T20:10:48.061Z,6.93
2023-02-23T20:13:20.463Z,8.45
2023-02-23T20:15:54.717Z,9.02
2023-02-23T20:18:24.689Z,9.02
2023-02-23T20:20:59.306Z,8.63
2023-02-23T20:23:28.552Z,8.68
2023-02-23T20:25:57.837Z,10.07
2023-02-23T20:28:29.112Z,11.82
2023-02-23T20:31:03.584Z,8.43
2023-02-23T20:33:33.372Z,8.68
2023-02-23T20:36:02.585Z,8.00
2023-02-23T20:38:31.794Z,9.20
2023-02-23T20:41:03.335Z,10.13
2023-02-23T20:43:34.582Z,8.65
2023-02-23T20:46:03.986Z,7.57
2023-02-23T20:48:35.026Z,12.10
2023-02-23T20:51:12.497Z,9.50
2023-02-23T20:53:46.189Z,12.00
2023-02-23T20:56:18.138Z,13.25
2023-02-23T20:58:49.434Z,13.18
2023-02-23T21:01:22.122Z,9.50
2023-02-23T21:03:52.113Z,11.00
2023-02-23T21:06:21.604Z,11.50
2023-02-23T21:09:07.487Z,10.38
2023-02-23T21:11:46.167Z,13.63
2023-02-23T21:14:24.050Z,10.63
2023-02-23T21:16:53.378Z,10.85
2023-02-23T21:19:28.228Z,12.18
2023-02-23T21:22:01.276Z,12.52
2023-02-23T21:24:35.882Z,12.55
2023-02-23T21:27:05.445Z,7.40
2023-02-23T21:29:41.985Z,10.70
2023-02-23T21:32:16.500Z,12.52
2023-02-23T21:34:48.918Z,14.00
2023-02-23T21:37:23.267Z,10.70
2023-02-23T21:39:52.571Z,10.02
2023-02-23T21:42:24.052Z,12.57
2023-02-23T21:44:55.565Z,9.60
2023-02-23T21:47:24.863Z,8.93
2023-02-23T21:49:53.987Z,10.55
2023-02-23T21:52:28.360Z,11.88
2023-02-23T21:54:58.923Z,13.25
2023-02-23T21:57:28.400Z,13.10
2023-02-23T21:59:59.463Z,12.68
2023-02-23T22:02:35.236Z,6.97
2023-02-23T22:05:06.562Z,8.65
2023-02-23T22:07:35.832Z,11.50
2023-02-23T22:10:05.946Z,11.50
2023-02-23T22:12:35.483Z,11.48
2023-02-23T22:15:14.939Z,11.23
2023-02-23T22:17:44.579Z,10.00
2023-02-23T22:20:15.020Z,11.55
2023-02-23T22:22:49.455Z,15.57
2023-02-23T22:25:20.373Z,13.90
2023-02-23T22:27:50.494Z,10.80
2023-02-23T22:30:22.626Z,14.05
2023-02-23T22:32:52.044Z,14.38
2023-02-23T22:35:21.586Z,12.27
2023-02-23T22:37:50.826Z,12.60
2023-02-23T22:40:20.372Z,14.68
2023-02-23T22:42:54.652Z,13.48
2023-02-23T22:45:25.788Z,15.98
2023-02-23T22:47:55.144Z,12.55
2023-02-23T22:50:24.672Z,13.25
2023-02-23T22:52:53.953Z,13.18
2023-02-23T22:55:23.185Z,15.70
2023-02-23T22:57:52.308Z,13.38
2023-02-23T23:00:21.790Z,13.18
2023-02-23T23:02:53.182Z,13.45
2023-02-23T23:05:23.869Z,12.40
2023-02-23T23:08:04.311Z,14.07
2023-02-23T23:10:33.549Z,12.57
2023-02-23T23:13:03.440Z,11.20
2023-02-23T23:15:34.017Z,11.80
2023-02-23T23:18:08.775Z,10.52
2023-02-23T23:20:43.056Z,11.75
2023-02-23T23:23:12.347Z,10.98
2023-02-23T23:25:41.908Z,13.68
2023-02-23T23:28:13.994Z,15.15
2023-02-23T23:30:46.824Z,13.20
2023-02-23T23:33:18.528Z,13.73
2023-02-23T23:35:48.713Z,13.80
2023-02-23T23:38:20.044Z,11.65
2023-02-23T23:40:53.178Z,14.18
2023-02-23T23:43:33.268Z,12.98
2023-02-23T23:46:08.269Z,11.55
2023-02-23T23:48:41.706Z,14.85
2023-02-23T23:51:11.271Z,10.18
2023-02-23T23:53:40.386Z,10.07
2023-02-23T23:56:11.602Z,11.07
2023-02-23T23:58:40.781Z,12.13
